sensor_id;sensor_type;location;lat;lon;timestamp;pressure;altitude;pressure_sealevel;temperature;humidity
35577;BME280;21680;52.400;16.920;2023-05-19T00:01:26;101903.05;;;10.15;54.93
35577;BME280;21680;52.400;16.920;2023-05-19T00:03:56;101900.98;;;10.12;55.00
35577;BME280;21680;52.400;16.920;2023-05-19T00:06:25;101898.55;;;10.08;55.07
35577;BME280;21680;52.400;16.920;2023-05-19T00:09:01;101903.96;;;10.06;55.24
35577;BME280;21680;52.400;16.920;2023-05-19T00:11:27;101900.11;;;10.02;55.21
35577;BME280;21680;52.400;16.920;2023-05-19T00:13:55;101899.29;;;9.99;55.33
35577;BME280;21680;52.400;16.920;2023-05-19T00:16:21;101896.65;;;9.97;55.35
35577;BME280;21680;52.400;16.920;2023-05-19T00:18:47;101897.60;;;9.94;55.44
35577;BME280;21680;52.400;16.920;2023-05-19T00:21:13;101899.77;;;9.93;55.55
35577;BME280;21680;52.400;16.920;2023-05-19T00:23:38;101896.42;;;9.91;55.74
35577;BME280;21680;52.400;16.920;2023-05-19T00:26:03;101894.51;;;9.89;55.81
35577;BME280;21680;52.400;16.920;2023-05-19T00:28:29;101890.95;;;9.88;55.78
35577;BME280;21680;52.400;16.920;2023-05-19T00:30:54;101887.77;;;9.86;55.73
35577;BME280;21680;52.400;16.920;2023-05-19T00:33:20;101887.66;;;9.83;55.92
35577;BME280;21680;52.400;16.920;2023-05-19T00:35:45;101884.69;;;9.80;56.01
35577;BME280;21680;52.400;16.920;2023-05-19T00:38:11;101884.57;;;9.77;56.04
35577;BME280;21680;52.400;16.920;2023-05-19T00:40:36;101883.90;;;9.75;56.12
35577;BME280;21680;52.400;16.920;2023-05-19T00:43:01;101882.86;;;9.73;56.21
35577;BME280;21680;52.400;16.920;2023-05-19T00:45:27;101883.96;;;9.72;56.25
35577;BME280;21680;52.400;16.920;2023-05-19T00:47:53;101877.58;;;9.69;56.33
35577;BME280;21680;52.400;16.920;2023-05-19T00:50:18;101880.48;;;9.67;56.35
35577;BME280;21680;52.400;16.920;2023-05-19T00:52:44;101880.91;;;9.64;56.56
35577;BME280;21680;52.400;16.920;2023-05-19T00:55:09;101880.58;;;9.63;56.56
35577;BME280;21680;52.400;16.920;2023-05-19T00:57:36;101883.08;;;9.63;56.64
35577;BME280;21680;52.400;16.920;2023-05-19T01:00:04;101884.88;;;9.61;56.71
35577;BME280;21680;52.400;16.920;2023-05-19T01:02:30;101883.44;;;9.62;56.76
35577;BME280;21680;52.400;16.920;2023-05-19T01:04:56;101883.98;;;9.62;56.83
35577;BME280;21680;52.400;16.920;2023-05-19T01:07:21;101882.91;;;9.62;56.86
35577;BME280;21680;52.400;16.920;2023-05-19T01:09:48;101882.58;;;9.60;56.89
35577;BME280;21680;52.400;16.920;2023-05-19T01:12:14;101881.88;;;9.59;56.90
35577;BME280;21680;52.400;16.920;2023-05-19T01:14:40;101883.87;;;9.58;56.95
35577;BME280;21680;52.400;16.920;2023-05-19T01:17:20;101884.80;;;9.56;56.96
35577;BME280;21680;52.400;16.920;2023-05-19T01:19:59;101885.93;;;9.53;57.06
35577;BME280;21680;52.400;16.920;2023-05-19T01:22:50;101887.80;;;9.49;57.06
35577;BME280;21680;52.400;16.920;2023-05-19T01:25:35;101890.94;;;9.43;57.11
35577;BME280;21680;52.400;16.920;2023-05-19T01:28:20;101891.17;;;9.40;57.14
35577;BME280;21680;52.400;16.920;2023-05-19T01:30:55;101887.50;;;9.37;57.22
35577;BME280;21680;52.400;16.920;2023-05-19T01:33:22;101893.06;;;9.34;57.24
35577;BME280;21680;52.400;16.920;2023-05-19T01:35:49;101898.09;;;9.33;57.45
35577;BME280;21680;52.400;16.920;2023-05-19T01:38:16;101897.05;;;9.31;57.47
35577;BME280;21680;52.400;16.920;2023-05-19T01:40:43;101897.45;;;9.29;57.42
35577;BME280;21680;52.400;16.920;2023-05-19T01:43:12;101898.34;;;9.28;57.65
35577;BME280;21680;52.400;16.920;2023-05-19T01:45:39;101904.98;;;9.27;57.68
35577;BME280;21680;52.400;16.920;2023-05-19T01:48:05;101906.28;;;9.24;57.69
35577;BME280;21680;52.400;16.920;2023-05-19T01:50:31;101905.43;;;9.21;57.77
35577;BME280;21680;52.400;16.920;2023-05-19T01:52:57;101911.36;;;9.19;57.99
35577;BME280;21680;52.400;16.920;2023-05-19T01:55:23;101911.91;;;9.18;58.00
35577;BME280;21680;52.400;16.920;2023-05-19T01:58:09;101910.36;;;9.15;58.02
35577;BME280;21680;52.400;16.920;2023-05-19T02:00:57;101910.05;;;9.13;58.19
35577;BME280;21680;52.400;16.920;2023-05-19T02:06:13;101910.84;;;9.08;58.33
35577;BME280;21680;52.400;16.920;2023-05-19T02:08:50;101914.09;;;9.05;58.43
35577;BME280;21680;52.400;16.920;2023-05-19T02:11:26;101906.08;;;9.05;58.71
35577;BME280;21680;52.400;16.920;2023-05-19T02:13:57;101908.39;;;9.05;58.69
35577;BME280;21680;52.400;16.920;2023-05-19T02:16:27;101905.36;;;9.05;58.69
35577;BME280;21680;52.400;16.920;2023-05-19T02:18:53;101903.60;;;9.03;58.76
35577;BME280;21680;52.400;16.920;2023-05-19T02:21:19;101902.90;;;9.03;58.88
35577;BME280;21680;52.400;16.920;2023-05-19T02:23:46;101905.60;;;9.01;58.91
35577;BME280;21680;52.400;16.920;2023-05-19T02:26:11;101904.05;;;8.98;58.92
35577;BME280;21680;52.400;16.920;2023-05-19T02:28:37;101905.55;;;8.94;58.89
35577;BME280;21680;52.400;16.920;2023-05-19T02:31:02;101900.27;;;8.89;59.04
35577;BME280;21680;52.400;16.920;2023-05-19T02:33:29;101906.17;;;8.88;59.09
35577;BME280;21680;52.400;16.920;2023-05-19T02:35:55;101904.98;;;8.85;59.21
35577;BME280;21680;52.400;16.920;2023-05-19T02:38:20;101902.53;;;8.82;59.37
35577;BME280;21680;52.400;16.920;2023-05-19T02:40:46;101902.02;;;8.80;59.50
35577;BME280;21680;52.400;16.920;2023-05-19T02:43:11;101902.23;;;8.78;59.49
35577;BME280;21680;52.400;16.920;2023-05-19T02:45:37;101903.52;;;8.76;59.62
35577;BME280;21680;52.400;16.920;2023-05-19T02:48:02;101902.98;;;8.75;59.71
35577;BME280;21680;52.400;16.920;2023-05-19T02:50:27;101905.14;;;8.74;59.79
35577;BME280;21680;52.400;16.920;2023-05-19T02:52:52;101907.81;;;8.75;59.89
35577;BME280;21680;52.400;16.920;2023-05-19T02:55:18;101906.75;;;8.74;60.01
35577;BME280;21680;52.400;16.920;2023-05-19T02:57:43;101902.13;;;8.73;60.03
35577;BME280;21680;52.400;16.920;2023-05-19T03:00:09;101903.20;;;8.73;60.04
35577;BME280;21680;52.400;16.920;2023-05-19T03:02:34;101899.84;;;8.72;60.08
35577;BME280;21680;52.400;16.920;2023-05-19T03:05:00;101900.05;;;8.69;60.24
35577;BME280;21680;52.400;16.920;2023-05-19T03:07:27;101902.55;;;8.69;60.35
35577;BME280;21680;52.400;16.920;2023-05-19T03:09:52;101898.09;;;8.69;60.34
35577;BME280;21680;52.400;16.920;2023-05-19T03:12:18;101898.65;;;8.68;60.39
35577;BME280;21680;52.400;16.920;2023-05-19T03:14:43;101895.10;;;8.67;60.43
35577;BME280;21680;52.400;16.920;2023-05-19T03:17:08;101894.95;;;8.65;60.50
35577;BME280;21680;52.400;16.920;2023-05-19T03:19:35;101891.95;;;8.63;60.68
35577;BME280;21680;52.400;16.920;2023-05-19T03:22:00;101892.69;;;8.62;60.75
35577;BME280;21680;52.400;16.920;2023-05-19T03:24:26;101891.45;;;8.61;60.75
35577;BME280;21680;52.400;16.920;2023-05-19T03:26:51;101891.84;;;8.59;60.83
35577;BME280;21680;52.400;16.920;2023-05-19T03:29:16;101890.79;;;8.58;60.94
35577;BME280;21680;52.400;16.920;2023-05-19T03:31:41;101890.55;;;8.61;61.06
35577;BME280;21680;52.400;16.920;2023-05-19T03:34:07;101890.52;;;8.63;61.12
35577;BME280;21680;52.400;16.920;2023-05-19T03:36:32;101889.81;;;8.63;61.19
35577;BME280;21680;52.400;16.920;2023-05-19T03:39:06;101885.93;;;8.61;61.37
35577;BME280;21680;52.400;16.920;2023-05-19T03:41:31;101889.15;;;8.60;61.47
35577;BME280;21680;52.400;16.920;2023-05-19T03:43:57;101889.48;;;8.62;61.53
35577;BME280;21680;52.400;16.920;2023-05-19T03:46:22;101891.44;;;8.62;61.67
35577;BME280;21680;52.400;16.920;2023-05-19T03:48:47;101892.48;;;8.64;61.75
35577;BME280;21680;52.400;16.920;2023-05-19T03:51:13;101897.79;;;8.66;61.86
35577;BME280;21680;52.400;16.920;2023-05-19T03:53:38;101897.76;;;8.68;61.91
35577;BME280;21680;52.400;16.920;2023-05-19T03:56:03;101897.71;;;8.71;62.00
35577;BME280;21680;52.400;16.920;2023-05-19T03:58:29;101895.17;;;8.74;62.09
35577;BME280;21680;52.400;16.920;2023-05-19T04:00:55;101896.01;;;8.77;62.11
35577;BME280;21680;52.400;16.920;2023-05-19T04:03:20;101899.36;;;8.79;62.21
35577;BME280;21680;52.400;16.920;2023-05-19T04:05:45;101897.58;;;8.80;62.29
35577;BME280;21680;52.400;16.920;2023-05-19T04:08:11;101895.92;;;8.83;62.42
35577;BME280;21680;52.400;16.920;2023-05-19T04:10:36;101897.61;;;8.89;62.53
35577;BME280;21680;52.400;16.920;2023-05-19T04:13:01;101896.25;;;8.95;62.54
35577;BME280;21680;52.400;16.920;2023-05-19T04:15:26;101894.36;;;9.01;62.63
35577;BME280;21680;52.400;16.920;2023-05-19T04:17:52;101900.14;;;9.08;62.61
35577;BME280;21680;52.400;16.920;2023-05-19T04:20:17;101898.43;;;9.14;62.68
35577;BME280;21680;52.400;16.920;2023-05-19T04:22:42;101897.96;;;9.20;62.72
35577;BME280;21680;52.400;16.920;2023-05-19T04:25:08;101897.13;;;9.26;62.74
35577;BME280;21680;52.400;16.920;2023-05-19T04:27:33;101900.62;;;9.31;62.79
35577;BME280;21680;52.400;16.920;2023-05-19T04:30:06;101897.16;;;9.35;62.81
35577;BME280;21680;52.400;16.920;2023-05-19T04:32:32;101896.56;;;9.38;62.91
35577;BME280;21680;52.400;16.920;2023-05-19T04:34:57;101896.81;;;9.44;62.98
35577;BME280;21680;52.400;16.920;2023-05-19T04:37:26;101895.07;;;9.51;63.02
35577;BME280;21680;52.400;16.920;2023-05-19T04:39:51;101894.07;;;9.57;62.95
35577;BME280;21680;52.400;16.920;2023-05-19T04:42:17;101894.53;;;9.60;62.91
35577;BME280;21680;52.400;16.920;2023-05-19T04:44:45;101897.70;;;9.63;62.98
35577;BME280;21680;52.400;16.920;2023-05-19T04:47:13;101894.22;;;9.67;63.08
35577;BME280;21680;52.400;16.920;2023-05-19T04:49:39;101895.54;;;9.73;63.10
35577;BME280;21680;52.400;16.920;2023-05-19T04:52:06;101900.04;;;9.80;63.22
35577;BME280;21680;52.400;16.920;2023-05-19T04:54:35;101900.70;;;9.91;63.26
35577;BME280;21680;52.400;16.920;2023-05-19T04:57:01;101904.05;;;10.01;63.23
35577;BME280;21680;52.400;16.920;2023-05-19T04:59:27;101901.70;;;10.11;63.16
35577;BME280;21680;52.400;16.920;2023-05-19T05:01:52;101906.20;;;10.20;63.23
35577;BME280;21680;52.400;16.920;2023-05-19T05:04:18;101904.83;;;10.26;63.18
35577;BME280;21680;52.400;16.920;2023-05-19T05:10:06;101908.02;;;10.49;63.34
35577;BME280;21680;52.400;16.920;2023-05-19T05:12:33;101908.92;;;10.64;63.24
35577;BME280;21680;52.400;16.920;2023-05-19T05:14:58;101910.04;;;10.77;63.20
35577;BME280;21680;52.400;16.920;2023-05-19T05:17:24;101909.23;;;10.88;63.14
35577;BME280;21680;52.400;16.920;2023-05-19T05:19:51;101905.09;;;10.97;63.05
35577;BME280;21680;52.400;16.920;2023-05-19T05:22:17;101898.58;;;11.06;63.13
35577;BME280;21680;52.400;16.920;2023-05-19T05:24:43;101902.36;;;11.19;63.15
35577;BME280;21680;52.400;16.920;2023-05-19T05:27:08;101902.61;;;11.30;63.02
35577;BME280;21680;52.400;16.920;2023-05-19T05:29:34;101899.27;;;11.35;62.95
35577;BME280;21680;52.400;16.920;2023-05-19T05:31:59;101896.67;;;11.45;62.98
35577;BME280;21680;52.400;16.920;2023-05-19T05:34:25;101894.70;;;11.52;62.79
35577;BME280;21680;52.400;16.920;2023-05-19T05:36:50;101896.71;;;11.63;62.87
35577;BME280;21680;52.400;16.920;2023-05-19T05:39:15;101894.77;;;11.75;62.92
35577;BME280;21680;52.400;16.920;2023-05-19T05:41:40;101895.92;;;11.85;62.77
35577;BME280;21680;52.400;16.920;2023-05-19T05:44:06;101895.66;;;11.95;62.63
35577;BME280;21680;52.400;16.920;2023-05-19T05:46:31;101890.63;;;12.01;62.65
35577;BME280;21680;52.400;16.920;2023-05-19T05:48:57;101895.93;;;12.10;62.65
35577;BME280;21680;52.400;16.920;2023-05-19T05:51:22;101897.13;;;12.18;62.59
35577;BME280;21680;52.400;16.920;2023-05-19T05:53:53;101895.84;;;12.25;62.49
35577;BME280;21680;52.400;16.920;2023-05-19T05:56:19;101896.07;;;12.35;62.43
35577;BME280;21680;52.400;16.920;2023-05-19T05:58:45;101897.80;;;12.43;62.36
35577;BME280;21680;52.400;16.920;2023-05-19T06:01:10;101901.61;;;12.47;62.28
35577;BME280;21680;52.400;16.920;2023-05-19T06:03:39;101900.98;;;12.55;62.25
35577;BME280;21680;52.400;16.920;2023-05-19T06:06:04;101899.21;;;12.66;62.21
35577;BME280;21680;52.400;16.920;2023-05-19T06:08:29;101900.96;;;12.84;62.16
35577;BME280;21680;52.400;16.920;2023-05-19T06:10:55;101896.77;;;12.97;62.11
35577;BME280;21680;52.400;16.920;2023-05-19T06:13:22;101904.92;;;13.09;61.98
35577;BME280;21680;52.400;16.920;2023-05-19T06:15:48;101908.92;;;13.19;61.91
35577;BME280;21680;52.400;16.920;2023-05-19T06:18:13;101904.02;;;13.26;61.76
35577;BME280;21680;52.400;16.920;2023-05-19T06:20:39;101904.15;;;13.27;61.58
35577;BME280;21680;52.400;16.920;2023-05-19T06:23:04;101905.17;;;13.34;61.66
35577;BME280;21680;52.400;16.920;2023-05-19T06:25:29;101905.06;;;13.43;61.55
35577;BME280;21680;52.400;16.920;2023-05-19T06:27:54;101901.88;;;13.52;61.45
35577;BME280;21680;52.400;16.920;2023-05-19T06:30:20;101901.77;;;13.64;61.28
35577;BME280;21680;52.400;16.920;2023-05-19T06:32:45;101899.31;;;13.73;61.18
35577;BME280;21680;52.400;16.920;2023-05-19T06:35:10;101904.27;;;13.79;61.02
35577;BME280;21680;52.400;16.920;2023-05-19T06:37:36;101908.35;;;13.86;60.95
35577;BME280;21680;52.400;16.920;2023-05-19T06:40:01;101905.56;;;13.88;60.70
35577;BME280;21680;52.400;16.920;2023-05-19T06:42:26;101903.92;;;13.94;60.63
35577;BME280;21680;52.400;16.920;2023-05-19T06:44:52;101902.16;;;14.07;60.68
35577;BME280;21680;52.400;16.920;2023-05-19T06:47:18;101905.17;;;14.17;60.45
35577;BME280;21680;52.400;16.920;2023-05-19T06:49:43;101905.35;;;14.13;60.07
35577;BME280;21680;52.400;16.920;2023-05-19T06:52:10;101904.75;;;14.10;60.03
35577;BME280;21680;52.400;16.920;2023-05-19T06:54:36;101908.86;;;14.16;59.98
35577;BME280;21680;52.400;16.920;2023-05-19T06:57:02;101908.92;;;14.18;59.89
35577;BME280;21680;52.400;16.920;2023-05-19T06:59:28;101910.39;;;14.13;59.64
35577;BME280;21680;52.400;16.920;2023-05-19T07:01:53;101913.69;;;14.07;59.59
35577;BME280;21680;52.400;16.920;2023-05-19T07:04:19;101913.14;;;14.11;59.61
35577;BME280;21680;52.400;16.920;2023-05-19T07:06:44;101913.36;;;14.15;59.43
35577;BME280;21680;52.400;16.920;2023-05-19T07:09:09;101914.14;;;14.14;59.25
35577;BME280;21680;52.400;16.920;2023-05-19T07:11:34;101914.77;;;14.16;59.28
35577;BME280;21680;52.400;16.920;2023-05-19T07:13:59;101911.77;;;14.19;59.08
35577;BME280;21680;52.400;16.920;2023-05-19T07:16:25;101915.45;;;14.17;59.08
35577;BME280;21680;52.400;16.920;2023-05-19T07:18:50;101912.20;;;14.27;58.98
35577;BME280;21680;52.400;16.920;2023-05-19T07:21:15;101914.20;;;14.26;58.64
35577;BME280;21680;52.400;16.920;2023-05-19T07:23:41;101912.96;;;14.25;58.66
35577;BME280;21680;52.400;16.920;2023-05-19T07:26:06;101910.55;;;14.27;58.53
35577;BME280;21680;52.400;16.920;2023-05-19T07:28:31;101906.83;;;14.35;58.61
35577;BME280;21680;52.400;16.920;2023-05-19T07:30:58;101905.67;;;14.37;58.31
35577;BME280;21680;52.400;16.920;2023-05-19T07:33:24;101905.48;;;14.42;58.43
35577;BME280;21680;52.400;16.920;2023-05-19T07:35:51;101906.10;;;14.50;58.24
35577;BME280;21680;52.400;16.920;2023-05-19T07:38:16;101906.75;;;14.47;58.08
35577;BME280;21680;52.400;16.920;2023-05-19T07:40:42;101908.20;;;14.47;58.00
35577;BME280;21680;52.400;16.920;2023-05-19T07:43:07;101909.98;;;14.48;58.06
35577;BME280;21680;52.400;16.920;2023-05-19T07:45:32;101910.48;;;14.57;58.08
35577;BME280;21680;52.400;16.920;2023-05-19T07:47:57;101909.07;;;14.75;58.16
35577;BME280;21680;52.400;16.920;2023-05-19T07:50:23;101903.84;;;14.84;57.93
35577;BME280;21680;52.400;16.920;2023-05-19T07:52:48;101898.52;;;14.82;57.75
35577;BME280;21680;52.400;16.920;2023-05-19T07:55:13;101897.19;;;14.79;57.48
35577;BME280;21680;52.400;16.920;2023-05-19T07:57:39;101895.15;;;14.68;57.27
35577;BME280;21680;52.400;16.920;2023-05-19T08:00:04;101898.33;;;14.65;57.37
35577;BME280;21680;52.400;16.920;2023-05-19T08:02:36;101902.41;;;14.75;57.46
35577;BME280;21680;52.400;16.920;2023-05-19T08:05:01;101902.38;;;14.76;57.19
35577;BME280;21680;52.400;16.920;2023-05-19T08:07:27;101899.66;;;14.85;57.41
35577;BME280;21680;52.400;16.920;2023-05-19T08:09:52;101895.83;;;14.99;57.42
35577;BME280;21680;52.400;16.920;2023-05-19T08:12:17;101896.16;;;15.12;57.26
35577;BME280;21680;52.400;16.920;2023-05-19T08:14:42;101895.27;;;15.16;57.00
35577;BME280;21680;52.400;16.920;2023-05-19T08:17:08;101894.80;;;15.15;57.02
35577;BME280;21680;52.400;16.920;2023-05-19T08:19:33;101893.47;;;15.25;56.99
35577;BME280;21680;52.400;16.920;2023-05-19T08:21:58;101889.52;;;15.24;56.73
35577;BME280;21680;52.400;16.920;2023-05-19T08:24:25;101893.21;;;15.22;56.69
35577;BME280;21680;52.400;16.920;2023-05-19T08:26:54;101888.94;;;15.30;56.79
35577;BME280;21680;52.400;16.920;2023-05-19T08:29:19;101893.20;;;15.31;56.52
35577;BME280;21680;52.400;16.920;2023-05-19T08:31:45;101893.50;;;15.36;56.45
35577;BME280;21680;52.400;16.920;2023-05-19T08:34:10;101893.65;;;15.41;56.53
35577;BME280;21680;52.400;16.920;2023-05-19T08:36:35;101894.36;;;15.54;56.62
35577;BME280;21680;52.400;16.920;2023-05-19T08:39:01;101892.70;;;15.71;56.66
35577;BME280;21680;52.400;16.920;2023-05-19T08:41:26;101894.73;;;15.82;56.58
35577;BME280;21680;52.400;16.920;2023-05-19T08:43:51;101889.09;;;15.79;56.22
35577;BME280;21680;52.400;16.920;2023-05-19T08:46:19;101882.02;;;15.64;56.07
35577;BME280;21680;52.400;16.920;2023-05-19T08:48:46;101886.94;;;15.63;56.04
35577;BME280;21680;52.400;16.920;2023-05-19T08:54:01;101886.91;;;15.75;55.93
35577;BME280;21680;52.400;16.920;2023-05-19T08:56:29;101884.36;;;15.76;56.01
35577;BME280;21680;52.400;16.920;2023-05-19T08:58:56;101884.88;;;15.84;56.19
35577;BME280;21680;52.400;16.920;2023-05-19T09:01:24;101886.62;;;16.09;56.37
35577;BME280;21680;52.400;16.920;2023-05-19T09:03:50;101889.15;;;16.20;56.01
35577;BME280;21680;52.400;16.920;2023-05-19T09:06:16;101889.20;;;16.15;55.61
35577;BME280;21680;52.400;16.920;2023-05-19T09:08:41;101887.15;;;16.13;55.44
35577;BME280;21680;52.400;16.920;2023-05-19T09:11:10;101885.38;;;16.01;55.12
35577;BME280;21680;52.400;16.920;2023-05-19T09:13:36;101889.63;;;16.07;55.55
35577;BME280;21680;52.400;16.920;2023-05-19T09:16:01;101883.64;;;16.30;55.59
35577;BME280;21680;52.400;16.920;2023-05-19T09:18:28;101881.16;;;16.55;55.54
35577;BME280;21680;52.400;16.920;2023-05-19T09:21:00;101883.23;;;16.83;55.55
35577;BME280;21680;52.400;16.920;2023-05-19T09:23:27;101881.27;;;17.08;55.33
35577;BME280;21680;52.400;16.920;2023-05-19T09:25:54;101881.82;;;17.18;54.94
35577;BME280;21680;52.400;16.920;2023-05-19T09:28:30;101880.02;;;17.25;54.90
35577;BME280;21680;52.400;16.920;2023-05-19T09:31:08;101876.73;;;17.40;54.85
35577;BME280;21680;52.400;16.920;2023-05-19T09:33:35;101875.69;;;17.52;54.65
35577;BME280;21680;52.400;16.920;2023-05-19T09:36:01;101876.30;;;17.69;54.57
35577;BME280;21680;52.400;16.920;2023-05-19T09:38:28;101873.77;;;17.72;54.27
35577;BME280;21680;52.400;16.920;2023-05-19T09:40:58;101875.77;;;17.72;53.94
35577;BME280;21680;52.400;16.920;2023-05-19T09:43:28;101875.07;;;17.71;53.81
35577;BME280;21680;52.400;16.920;2023-05-19T09:46:07;101870.93;;;17.78;53.70
35577;BME280;21680;52.400;16.920;2023-05-19T09:48:34;101872.54;;;17.75;53.37
35577;BME280;21680;52.400;16.920;2023-05-19T09:51:01;101872.16;;;17.75;53.29
35577;BME280;21680;52.400;16.920;2023-05-19T09:53:28;101874.19;;;17.78;53.11
35577;BME280;21680;52.400;16.920;2023-05-19T09:55:56;101875.99;;;17.75;52.92
35577;BME280;21680;52.400;16.920;2023-05-19T09:58:22;101875.27;;;17.57;52.43
35577;BME280;21680;52.400;16.920;2023-05-19T10:00:49;101874.17;;;17.37;52.11
35577;BME280;21680;52.400;16.920;2023-05-19T10:03:15;101881.69;;;17.28;52.12
35577;BME280;21680;52.400;16.920;2023-05-19T10:05:42;101875.88;;;17.14;51.92
35577;BME280;21680;52.400;16.920;2023-05-19T10:08:08;101875.67;;;16.94;51.67
35577;BME280;21680;52.400;16.920;2023-05-19T10:10:35;101873.95;;;16.85;51.94
35577;BME280;21680;52.400;16.920;2023-05-19T10:13:01;101874.09;;;16.82;51.78
35577;BME280;21680;52.400;16.920;2023-05-19T10:15:28;101866.73;;;16.89;51.88
35577;BME280;21680;52.400;16.920;2023-05-19T10:17:54;101864.73;;;16.96;51.82
35577;BME280;21680;52.400;16.920;2023-05-19T10:20:20;101867.66;;;17.06;51.91
35577;BME280;21680;52.400;16.920;2023-05-19T10:22:45;101864.86;;;17.11;51.78
35577;BME280;21680;52.400;16.920;2023-05-19T10:25:11;101867.05;;;17.10;51.71
35577;BME280;21680;52.400;16.920;2023-05-19T10:27:45;101869.05;;;16.96;51.48
35577;BME280;21680;52.400;16.920;2023-05-19T10:30:17;101872.02;;;16.80;51.53
35577;BME280;21680;52.400;16.920;2023-05-19T10:32:45;101868.94;;;16.77;51.58
35577;BME280;21680;52.400;16.920;2023-05-19T10:38:15;101870.36;;;16.63;51.44
35577;BME280;21680;52.400;16.920;2023-05-19T10:43:54;101872.55;;;16.36;51.59
35577;BME280;21680;52.400;16.920;2023-05-19T10:46:28;101872.47;;;16.11;51.35
35577;BME280;21680;52.400;16.920;2023-05-19T10:48:54;101876.42;;;15.80;51.32
35577;BME280;21680;52.400;16.920;2023-05-19T10:51:20;101871.23;;;15.64;51.56
35577;BME280;21680;52.400;16.920;2023-05-19T10:53:45;101873.54;;;15.57;51.80
35577;BME280;21680;52.400;16.920;2023-05-19T10:56:26;101875.33;;;15.57;51.78
35577;BME280;21680;52.400;16.920;2023-05-19T10:58:53;101876.05;;;15.61;51.86
35577;BME280;21680;52.400;16.920;2023-05-19T11:01:18;101875.71;;;15.56;51.75
35577;BME280;21680;52.400;16.920;2023-05-19T11:03:52;101874.48;;;15.47;51.79
35577;BME280;21680;52.400;16.920;2023-05-19T11:06:28;101877.20;;;15.39;51.97
35577;BME280;21680;52.400;16.920;2023-05-19T11:08:59;101875.50;;;15.36;52.02
35577;BME280;21680;52.400;16.920;2023-05-19T11:11:41;101876.58;;;15.32;52.15
35577;BME280;21680;52.400;16.920;2023-05-19T11:14:09;101870.85;;;15.36;52.31
35577;BME280;21680;52.400;16.920;2023-05-19T11:16:36;101871.34;;;15.41;52.39
35577;BME280;21680;52.400;16.920;2023-05-19T11:19:01;101869.31;;;15.46;52.40
35577;BME280;21680;52.400;16.920;2023-05-19T11:21:46;101866.34;;;15.56;52.58
35577;BME280;21680;52.400;16.920;2023-05-19T11:24:38;101864.13;;;15.81;52.81
35577;BME280;21680;52.400;16.920;2023-05-19T11:27:30;101860.09;;;16.10;52.88
35577;BME280;21680;52.400;16.920;2023-05-19T11:29:58;101864.40;;;16.51;53.03
35577;BME280;21680;52.400;16.920;2023-05-19T11:32:29;101860.58;;;16.67;52.74
35577;BME280;21680;52.400;16.920;2023-05-19T11:34:56;101852.29;;;16.71;52.59
35577;BME280;21680;52.400;16.920;2023-05-19T11:37:22;101851.35;;;16.75;52.67
35577;BME280;21680;52.400;16.920;2023-05-19T11:39:48;101849.45;;;16.83;52.50
35577;BME280;21680;52.400;16.920;2023-05-19T11:42:13;101854.10;;;16.96;52.54
35577;BME280;21680;52.400;16.920;2023-05-19T11:44:39;101846.23;;;17.11;52.44
35577;BME280;21680;52.400;16.920;2023-05-19T11:47:06;101841.30;;;17.43;52.59
35577;BME280;21680;52.400;16.920;2023-05-19T11:49:31;101838.80;;;17.67;52.53
35577;BME280;21680;52.400;16.920;2023-05-19T11:51:59;101839.84;;;17.91;52.40
35577;BME280;21680;52.400;16.920;2023-05-19T11:54:29;101839.31;;;18.04;52.00
35577;BME280;21680;52.400;16.920;2023-05-19T11:56:56;101843.62;;;18.04;51.39
35577;BME280;21680;52.400;16.920;2023-05-19T11:59:35;101849.39;;;17.85;51.04
35577;BME280;21680;52.400;16.920;2023-05-19T12:02:21;101850.89;;;17.81;51.11
35577;BME280;21680;52.400;16.920;2023-05-19T12:04:47;101852.42;;;17.93;51.04
35577;BME280;21680;52.400;16.920;2023-05-19T12:07:15;101852.41;;;17.99;50.61
35577;BME280;21680;52.400;16.920;2023-05-19T12:09:47;101850.05;;;17.86;50.46
35577;BME280;21680;52.400;16.920;2023-05-19T12:12:17;101847.79;;;17.95;50.69
35577;BME280;21680;52.400;16.920;2023-05-19T12:14:44;101849.33;;;18.06;50.61
35577;BME280;21680;52.400;16.920;2023-05-19T12:17:14;101845.59;;;18.21;50.53
35577;BME280;21680;52.400;16.920;2023-05-19T12:19:43;101852.23;;;18.31;50.43
35577;BME280;21680;52.400;16.920;2023-05-19T12:22:09;101858.56;;;18.34;50.45
35577;BME280;21680;52.400;16.920;2023-05-19T12:24:36;101855.10;;;18.31;50.28
35577;BME280;21680;52.400;16.920;2023-05-19T12:27:08;101848.20;;;18.22;50.11
35577;BME280;21680;52.400;16.920;2023-05-19T12:29:34;101852.80;;;18.15;50.03
35577;BME280;21680;52.400;16.920;2023-05-19T12:32:00;101849.08;;;18.07;49.92
35577;BME280;21680;52.400;16.920;2023-05-19T12:34:25;101845.34;;;17.76;49.48
35577;BME280;21680;52.400;16.920;2023-05-19T12:36:51;101841.56;;;17.45;49.19
35577;BME280;21680;52.400;16.920;2023-05-19T12:39:16;101841.91;;;17.32;49.43
35577;BME280;21680;52.400;16.920;2023-05-19T12:41:44;101838.78;;;17.33;49.71
35577;BME280;21680;52.400;16.920;2023-05-19T12:44:15;101844.70;;;17.41;49.95
35577;BME280;21680;52.400;16.920;2023-05-19T12:46:42;101841.10;;;17.44;49.75
35577;BME280;21680;52.400;16.920;2023-05-19T12:49:08;101841.52;;;17.49;49.92
35577;BME280;21680;52.400;16.920;2023-05-19T12:51:33;101840.11;;;17.55;49.82
35577;BME280;21680;52.400;16.920;2023-05-19T12:54:03;101842.56;;;17.54;49.76
35577;BME280;21680;52.400;16.920;2023-05-19T12:56:28;101840.63;;;17.46;49.64
35577;BME280;21680;52.400;16.920;2023-05-19T12:58:54;101839.01;;;17.32;49.62